createdAt,value
2023-05-14T00:01:54.343Z,12.3
2023-05-14T00:04:20.411Z,12.3
2023-05-14T00:06:46.524Z,12.3
2023-05-14T00:09:12.616Z,12.3
2023-05-14T00:11:38.698Z,12.3
2023-05-14T00:14:03.807Z,12.3
2023-05-14T00:16:29.897Z,12.3
2023-05-14T00:18:55.998Z,12.4
2023-05-14T00:21:22.072Z,12.4
2023-05-14T00:23:48.182Z,12.3
2023-05-14T00:26:14.273Z,12.3
2023-05-14T00:28:40.385Z,12.3
2023-05-14T00:31:06.479Z,12.3
2023-05-14T00:33:32.562Z,12.3
2023-05-14T00:35:58.661Z,12.3
2023-05-14T00:38:24.771Z,12.2
2023-05-14T00:40:50.856Z,12.2
2023-05-14T00:43:16.942Z,12.2
2023-05-14T00:45:42.065Z,12.2
2023-05-14T00:48:08.149Z,12.2
2023-05-14T00:50:34.249Z,12.2
2023-05-14T00:53:00.343Z,12.2
2023-05-14T00:55:26.457Z,12.2
2023-05-14T00:57:52.510Z,12.1
2023-05-14T01:00:18.643Z,12.1
2023-05-14T01:02:44.745Z,12.1
2023-05-14T01:05:10.800Z,12.1
2023-05-14T01:07:36.915Z,12.1
2023-05-14T01:10:03.014Z,12.1
2023-05-14T01:12:29.101Z,12.1
2023-05-14T01:14:55.206Z,12.1
2023-05-14T01:17:20.305Z,12
2023-05-14T01:19:46.406Z,12
2023-05-14T01:22:12.469Z,12
2023-05-14T01:24:38.561Z,12
2023-05-14T01:27:04.674Z,12
2023-05-14T01:29:30.761Z,12
2023-05-14T01:31:56.874Z,11.9
2023-05-14T01:34:22.955Z,11.8
2023-05-14T01:36:49.057Z,11.8
2023-05-14T01:39:15.135Z,11.7
2023-05-14T01:41:41.251Z,11.7
2023-05-14T01:44:07.342Z,11.6
2023-05-14T01:46:33.419Z,11.6
2023-05-14T01:48:58.538Z,11.6
2023-05-14T01:51:24.645Z,11.6
2023-05-14T01:53:50.741Z,11.6
2023-05-14T01:56:16.878Z,11.6
2023-05-14T01:58:42.929Z,11.6
2023-05-14T02:01:09.097Z,11.6
2023-05-14T02:03:35.108Z,11.6
2023-05-14T02:06:01.229Z,11.7
2023-05-14T02:08:27.322Z,11.7
2023-05-14T02:10:53.400Z,11.7
2023-05-14T02:13:19.533Z,11.7
2023-05-14T02:15:45.590Z,11.7
2023-05-14T02:18:11.686Z,11.7
2023-05-14T02:20:36.797Z,11.7
2023-05-14T02:23:02.904Z,11.7
2023-05-14T02:25:28.995Z,11.7
2023-05-14T02:27:55.070Z,11.7
2023-05-14T02:30:21.187Z,11.7
2023-05-14T02:32:47.284Z,11.7
2023-05-14T02:35:13.368Z,11.7
2023-05-14T02:37:39.466Z,11.7
2023-05-14T02:40:05.642Z,11.7
2023-05-14T02:42:31.661Z,11.8
2023-05-14T02:44:57.757Z,11.8
2023-05-14T02:47:23.846Z,11.8
2023-05-14T02:49:49.944Z,11.8
2023-05-14T02:52:15.106Z,11.8
2023-05-14T02:54:41.173Z,11.9
2023-05-14T02:57:07.251Z,11.9
2023-05-14T02:59:33.348Z,11.9
2023-05-14T03:01:59.440Z,11.9
2023-05-14T03:04:25.543Z,11.9
2023-05-14T03:06:51.639Z,12
2023-05-14T03:09:17.725Z,12
2023-05-14T03:11:43.824Z,12
2023-05-14T03:14:09.930Z,12
2023-05-14T03:16:36.017Z,12
2023-05-14T03:19:02.102Z,12
2023-05-14T03:21:28.203Z,12
2023-05-14T03:23:53.310Z,12.1
2023-05-14T03:26:19.412Z,12.1
2023-05-14T03:28:45.498Z,12.1
2023-05-14T03:31:11.597Z,12.1
2023-05-14T03:33:37.680Z,12.1
2023-05-14T03:36:03.764Z,12.1
2023-05-14T03:38:29.874Z,12.1
2023-05-14T03:40:55.984Z,12.1
2023-05-14T03:43:22.079Z,12.1
2023-05-14T03:45:48.172Z,12.1
2023-05-14T03:48:14.259Z,12.1
2023-05-14T03:50:40.348Z,12.1
2023-05-14T03:53:06.461Z,12.1
2023-05-14T03:55:31.550Z,12.1
2023-05-14T03:57:57.649Z,12.1
2023-05-14T04:00:23.745Z,12.1
2023-05-14T04:02:49.871Z,12.1
2023-05-14T04:05:15.963Z,12.1
2023-05-14T04:07:42.042Z,12.1
2023-05-14T04:10:08.128Z,12.1
2023-05-14T04:12:34.240Z,12.1
2023-05-14T04:15:00.327Z,12.1
2023-05-14T04:17:26.416Z,12.1
2023-05-14T04:19:52.536Z,12.1
2023-05-14T04:22:18.613Z,12.1
2023-05-14T04:24:44.705Z,12.1
2023-05-14T04:27:09.828Z,12.2
2023-05-14T04:29:35.921Z,12.2
2023-05-14T04:32:02.006Z,12.2
2023-05-14T04:34:28.094Z,12.2
2023-05-14T04:36:54.192Z,12.2
2023-05-14T04:39:20.278Z,12.3
2023-05-14T04:41:46.401Z,12.3
2023-05-14T04:44:12.478Z,12.3
2023-05-14T04:46:38.554Z,12.3
2023-05-14T04:49:04.661Z,12.3
2023-05-14T04:51:30.766Z,12.3
2023-05-14T04:53:56.834Z,12.3
2023-05-14T04:58:49.050Z,12.4
2023-05-14T05:01:14.165Z,12.4
2023-05-14T05:03:40.251Z,12.4
2023-05-14T05:06:06.365Z,12.4
2023-05-14T05:08:32.438Z,12.4
2023-05-14T05:10:58.614Z,12.5
2023-05-14T05:13:24.666Z,12.5
2023-05-14T05:15:50.753Z,12.5
2023-05-14T05:18:16.822Z,12.5
2023-05-14T05:20:42.914Z,12.5
2023-05-14T05:23:09.045Z,12.5
2023-05-14T05:25:35.107Z,12.5
2023-05-14T05:28:01.203Z,12.5
2023-05-14T05:30:27.296Z,12.5
2023-05-14T05:32:52.428Z,12.6
2023-05-14T05:35:18.505Z,12.6
2023-05-14T05:37:44.599Z,12.6
2023-05-14T05:40:10.688Z,12.6
2023-05-14T05:42:36.802Z,12.7
2023-05-14T05:45:02.949Z,12.7
2023-05-14T05:47:28.977Z,12.7
2023-05-14T05:49:55.087Z,12.7
2023-05-14T05:52:21.175Z,12.7
2023-05-14T05:54:47.261Z,12.8
2023-05-14T05:57:13.361Z,12.8
2023-05-14T05:59:39.529Z,12.8
2023-05-14T06:02:05.548Z,12.8
2023-05-14T06:06:56.749Z,12.9
2023-05-14T06:09:22.844Z,13
2023-05-14T06:11:48.962Z,13
2023-05-14T06:14:15.066Z,13.1
2023-05-14T06:16:41.131Z,13.1
2023-05-14T06:19:07.245Z,13.1
2023-05-14T06:21:33.328Z,13.2
2023-05-14T06:23:59.447Z,13.2
2023-05-14T06:26:25.518Z,13.3
2023-05-14T06:28:51.610Z,13.3
2023-05-14T06:31:17.742Z,13.4
2023-05-14T06:33:43.798Z,13.4
2023-05-14T06:36:08.957Z,13.5
2023-05-14T06:38:35.007Z,13.7
2023-05-14T06:41:01.111Z,13.8
2023-05-14T06:43:27.211Z,13.9
2023-05-14T06:45:53.299Z,14
2023-05-14T06:48:19.371Z,14.1
2023-05-14T06:50:45.518Z,14.1
2023-05-14T06:53:11.562Z,14.2
2023-05-14T06:55:37.662Z,14.3
2023-05-14T06:58:03.771Z,14.3
2023-05-14T07:00:29.946Z,14.4
2023-05-14T07:02:55.960Z,14.5
2023-05-14T07:05:22.069Z,14.6
2023-05-14T07:07:47.168Z,14.6
2023-05-14T07:10:13.267Z,14.6
2023-05-14T07:12:39.348Z,14.7
2023-05-14T07:15:05.461Z,14.7
2023-05-14T07:17:31.540Z,14.9
2023-05-14T07:19:56.685Z,14.9
2023-05-14T07:22:22.905Z,15
2023-05-14T07:24:48.874Z,15.1
2023-05-14T07:27:14.955Z,15.2
2023-05-14T07:29:41.080Z,15.3
2023-05-14T07:32:07.159Z,15.4
2023-05-14T07:34:33.236Z,15.5
2023-05-14T07:36:59.345Z,15.6
2023-05-14T07:39:25.441Z,15.6
2023-05-14T07:41:51.525Z,15.7
2023-05-14T07:44:17.608Z,15.8
2023-05-14T07:46:43.722Z,15.8
2023-05-14T07:49:09.831Z,15.9
2023-05-14T07:51:34.920Z,16
2023-05-14T07:54:01.026Z,16.1
2023-05-14T07:56:27.110Z,16.2
2023-05-14T07:58:53.217Z,16.3
2023-05-14T08:01:19.303Z,16.4
2023-05-14T08:03:45.404Z,16.5
2023-05-14T08:06:11.507Z,16.6
2023-05-14T08:08:37.571Z,16.7
2023-05-14T08:11:03.682Z,16.7
2023-05-14T08:13:29.755Z,16.7
2023-05-14T08:15:55.853Z,16.7
2023-05-14T08:18:22.014Z,16.7
2023-05-14T08:20:48.062Z,16.8
2023-05-14T08:23:13.200Z,16.9
2023-05-14T08:25:39.257Z,17
2023-05-14T08:28:05.372Z,17.1
2023-05-14T08:30:31.462Z,17.2
2023-05-14T08:32:57.572Z,17.3
2023-05-14T08:35:23.670Z,17.4
2023-05-14T08:37:49.736Z,17.5
2023-05-14T08:40:15.825Z,17.6
2023-05-14T08:42:41.941Z,17.7
2023-05-14T08:45:08.018Z,17.9
2023-05-14T08:47:34.126Z,18
2023-05-14T08:50:00.210Z,18.1
2023-05-14T08:52:26.308Z,18.2
2023-05-14T08:54:52.414Z,18.3
2023-05-14T08:57:17.521Z,18.4
2023-05-14T08:59:43.617Z,18.6
2023-05-14T09:02:09.697Z,18.7
2023-05-14T09:04:35.795Z,18.8
2023-05-14T09:07:01.919Z,18.9
2023-05-14T09:09:27.983Z,19
2023-05-14T09:11:54.084Z,19.1
2023-05-14T09:14:20.172Z,19.2
2023-05-14T09:16:46.276Z,19.4
2023-05-14T09:19:12.368Z,19.6
2023-05-14T09:21:38.447Z,19.8
2023-05-14T09:24:04.544Z,20
2023-05-14T09:26:30.693Z,20.2
2023-05-14T09:28:55.760Z,20.3
2023-05-14T09:31:21.867Z,20.5
2023-05-14T09:33:47.959Z,20.5
2023-05-14T09:36:14.020Z,20.6
2023-05-14T09:38:40.130Z,20.8
2023-05-14T09:41:06.240Z,20.8
2023-05-14T09:43:32.310Z,20.9
2023-05-14T09:45:58.535Z,20.9
2023-05-14T09:48:24.704Z,20.8
2023-05-14T09:50:50.658Z,20.8
2023-05-14T09:53:16.740Z,20.7
2023-05-14T09:55:42.779Z,20.6
2023-05-14T09:58:08.911Z,20.5
2023-05-14T10:00:34.010Z,20.4
2023-05-14T10:03:00.170Z,20.2
2023-05-14T10:05:26.200Z,20.1
2023-05-14T10:07:52.336Z,20
2023-05-14T10:10:18.420Z,19.8
2023-05-14T10:12:44.478Z,19.7
2023-05-14T10:15:10.600Z,19.5
2023-05-14T10:17:36.733Z,19.4
2023-05-14T10:20:02.758Z,19.3
2023-05-14T10:22:28.857Z,19.3
2023-05-14T10:24:54.962Z,19.3
2023-05-14T10:27:21.053Z,19.4
2023-05-14T10:29:47.150Z,19.4
2023-05-14T10:32:12.247Z,19.6
2023-05-14T10:34:38.358Z,19.7
2023-05-14T10:39:30.531Z,19.9
2023-05-14T10:41:56.621Z,20
2023-05-14T10:44:22.725Z,20.1
2023-05-14T10:46:48.808Z,20.3
2023-05-14T10:49:14.902Z,20.4
2023-05-14T10:51:41.169Z,20.6
2023-05-14T10:54:07.102Z,20.7
2023-05-14T10:56:33.288Z,20.8
2023-05-14T10:58:59.348Z,20.9
2023-05-14T11:01:25.445Z,21
2023-05-14T11:03:50.530Z,21.1
2023-05-14T11:06:16.699Z,21.4
2023-05-14T11:08:42.747Z,21.6
2023-05-14T11:11:08.795Z,21.7
2023-05-14T11:13:34.880Z,21.7
2023-05-14T11:16:00.991Z,21.7
2023-05-14T11:18:27.068Z,21.7
2023-05-14T11:20:53.334Z,21.7
2023-05-14T11:23:19.265Z,21.6
2023-05-14T11:25:45.349Z,21.6
2023-05-14T11:28:11.447Z,21.6
2023-05-14T11:30:37.548Z,21.6
2023-05-14T11:33:03.651Z,21.6
2023-05-14T11:35:28.750Z,21.6
2023-05-14T11:37:54.847Z,21.7
2023-05-14T11:40:20.959Z,21.8
2023-05-14T11:42:47.061Z,22
2023-05-14T11:45:13.152Z,22.1
2023-05-14T11:47:39.249Z,22.3
2023-05-14T11:50:05.343Z,22.4
2023-05-14T11:52:31.437Z,22.5
2023-05-14T11:54:57.550Z,22.7
2023-05-14T11:57:23.664Z,22.8
2023-05-14T11:59:49.717Z,23
2023-05-14T12:02:15.815Z,23.2
2023-05-14T12:04:41.900Z,23.4
2023-05-14T12:07:07.014Z,23.6
2023-05-14T12:09:33.123Z,23.8
2023-05-14T12:11:59.206Z,23.8
2023-05-14T12:14:25.389Z,23.9
2023-05-14T12:16:51.369Z,24.1
2023-05-14T12:19:17.478Z,24.4
2023-05-14T12:21:43.570Z,24.9
2023-05-14T12:24:09.654Z,25.6
2023-05-14T12:26:35.781Z,26.6
2023-05-14T12:29:01.860Z,27.6
2023-05-14T12:31:27.995Z,28.5
2023-05-14T12:33:54.039Z,29
2023-05-14T12:36:20.145Z,29.4
2023-05-14T12:38:45.245Z,29.7
2023-05-14T12:41:11.337Z,30.1
2023-05-14T12:43:37.425Z,30.6
2023-05-14T12:46:03.524Z,31
2023-05-14T12:48:29.701Z,31.3
2023-05-14T12:50:55.732Z,31.3
2023-05-14T12:53:21.822Z,31.3
2023-05-14T12:55:47.948Z,31.5
2023-05-14T12:58:13.994Z,31.6
2023-05-14T13:00:40.121Z,31.9
2023-05-14T13:03:06.213Z,32.2
2023-05-14T13:05:32.281Z,32.5
2023-05-14T13:07:58.381Z,32.8
2023-05-14T13:10:23.526Z,33
2023-05-14T13:12:49.594Z,33.1
2023-05-14T13:15:15.681Z,33.1
2023-05-14T13:17:41.773Z,33.2
2023-05-14T13:20:07.946Z,33.3
2023-05-14T13:22:33.983Z,33.3
2023-05-14T13:25:00.074Z,33.2
2023-05-14T13:27:26.178Z,33.2
2023-05-14T13:29:52.265Z,33.3
2023-05-14T13:32:18.348Z,33.5
2023-05-14T13:34:44.452Z,33.8
2023-05-14T13:37:10.545Z,34
2023-05-14T13:39:36.630Z,33.6
2023-05-14T13:42:01.898Z,33
2023-05-14T13:44:27.859Z,32
2023-05-14T13:46:53.966Z,31
2023-05-14T13:49:20.246Z,30
2023-05-14T13:51:46.126Z,29.4
2023-05-14T13:54:12.358Z,29.4
2023-05-14T13:56:38.432Z,30.1
2023-05-14T13:59:04.685Z,30.8
2023-05-14T14:01:30.689Z,31.2
2023-05-14T14:03:56.779Z,31.3
2023-05-14T14:06:22.752Z,30.8
2023-05-14T14:08:48.807Z,30.1
2023-05-14T14:11:14.904Z,29.4
2023-05-14T14:13:40.068Z,28.7
2023-05-14T14:16:06.096Z,28.1
2023-05-14T14:18:32.329Z,27.3
2023-05-14T14:20:58.506Z,26.7
2023-05-14T14:23:24.572Z,26.1
2023-05-14T14:25:50.605Z,25.5
2023-05-14T14:28:16.701Z,25.1
2023-05-14T14:30:42.788Z,24.7
2023-05-14T14:33:08.790Z,24.4
2023-05-14T14:35:34.888Z,24.3
2023-05-14T14:38:00.953Z,24.6
2023-05-14T14:40:27.046Z,25.5
2023-05-14T14:42:53.187Z,26.4
2023-05-14T14:45:18.242Z,26.9
2023-05-14T14:47:44.353Z,27.3
2023-05-14T14:50:10.446Z,27.4
2023-05-14T14:52:36.607Z,27.7
2023-05-14T14:55:02.643Z,28.4
2023-05-14T14:57:28.797Z,29.3
2023-05-14T14:59:54.949Z,30.2
2023-05-14T15:02:21.067Z,30.5
2023-05-14T15:04:47.035Z,30.6
2023-05-14T15:07:13.254Z,30.6
2023-05-14T15:09:39.206Z,30.1
2023-05-14T15:12:05.294Z,30.2
2023-05-14T15:14:31.395Z,30.1
2023-05-14T15:16:56.515Z,30
2023-05-14T15:19:22.603Z,30.1
2023-05-14T15:21:48.733Z,30.5
2023-05-14T15:24:14.801Z,31
2023-05-14T15:26:40.959Z,31.7
2023-05-14T15:29:06.009Z,32.2
2023-05-14T15:31:32.111Z,32.3
2023-05-14T15:33:58.304Z,32.3
2023-05-14T15:36:24.368Z,31.8
2023-05-14T15:38:50.394Z,31.5
2023-05-14T15:41:16.469Z,31.4
2023-05-14T15:43:42.581Z,31.7
2023-05-14T15:46:08.690Z,32.1
2023-05-14T15:48:34.753Z,32.6
2023-05-14T15:51:00.912Z,32.8
2023-05-14T15:53:27.021Z,32.5
2023-05-14T15:55:53.046Z,32
2023-05-14T15:58:19.141Z,31.2
2023-05-14T16:00:44.252Z,30.7
2023-05-14T16:03:10.334Z,30.1
2023-05-14T16:05:36.446Z,29.6
2023-05-14T16:08:02.581Z,29.1
2023-05-14T16:10:28.645Z,28.7
2023-05-14T16:12:54.723Z,28.4
2023-05-14T16:15:20.816Z,28
2023-05-14T16:17:46.911Z,27.5
2023-05-14T16:20:12.992Z,27.3
2023-05-14T16:22:39.157Z,27.1
2023-05-14T16:25:05.193Z,26.8
2023-05-14T16:27:31.278Z,26.4
2023-05-14T16:29:57.380Z,25.9
2023-05-14T16:32:22.512Z,25.4
2023-05-14T16:34:48.602Z,24.9
2023-05-14T16:37:14.699Z,24.6
2023-05-14T16:39:40.781Z,24.7
2023-05-14T16:42:06.889Z,25
2023-05-14T16:44:32.961Z,25.7
2023-05-14T16:46:59.061Z,26.3
2023-05-14T16:49:25.146Z,26.8
2023-05-14T16:51:51.244Z,27.1
2023-05-14T16:54:17.337Z,27.4
2023-05-14T16:56:43.462Z,27.4
2023-05-14T16:59:10.878Z,27.3
2023-05-14T17:01:35.618Z,27.1
2023-05-14T17:04:00.742Z,26.8
2023-05-14T17:06:26.820Z,26.5
2023-05-14T17:08:52.923Z,26.1
2023-05-14T17:11:19.041Z,25.8
2023-05-14T17:13:45.142Z,25.7
2023-05-14T17:16:11.206Z,25.6
2023-05-14T17:18:37.295Z,25.5
2023-05-14T17:21:03.386Z,25.4
2023-05-14T17:23:29.479Z,25.1
2023-05-14T17:25:55.595Z,24.8
2023-05-14T17:28:21.682Z,24.5
2023-05-14T17:30:47.797Z,24.1
2023-05-14T17:33:13.905Z,23.7
2023-05-14T17:35:38.989Z,23.4
2023-05-14T17:38:05.089Z,23
2023-05-14T17:40:31.231Z,22.7
2023-05-14T17:42:57.355Z,22.5
2023-05-14T17:45:23.368Z,22.2
2023-05-14T17:47:49.463Z,21.9
2023-05-14T17:50:15.583Z,21.6
2023-05-14T17:52:41.670Z,21.4
2023-05-14T17:55:07.769Z,21.2
2023-05-14T17:57:33.838Z,21
2023-05-14T17:59:59.947Z,20.8
2023-05-14T18:02:26.080Z,20.6
2023-05-14T18:04:52.125Z,20.5
2023-05-14T18:07:17.274Z,20.3
2023-05-14T18:09:43.344Z,20.2
2023-05-14T18:12:09.471Z,20
2023-05-14T18:14:35.549Z,19.9
2023-05-14T18:17:01.618Z,19.7
2023-05-14T18:19:27.851Z,19.6
2023-05-14T18:21:53.804Z,19.4
2023-05-14T18:24:19.906Z,19.3
2023-05-14T18:26:46.012Z,19.1
2023-05-14T18:29:12.100Z,19
2023-05-14T18:31:38.255Z,18.8
2023-05-14T18:34:04.281Z,18.6
2023-05-14T18:36:30.411Z,18.5
2023-05-14T18:38:55.556Z,18.3
2023-05-14T18:41:21.590Z,18.2
2023-05-14T18:43:47.676Z,18
2023-05-14T18:46:13.773Z,17.9
2023-05-14T18:48:39.889Z,17.7
2023-05-14T18:51:05.960Z,17.6
2023-05-14T18:53:32.086Z,17.4
2023-05-14T18:55:58.220Z,17.3
2023-05-14T18:58:24.282Z,17.1
2023-05-14T19:00:50.340Z,16.9
2023-05-14T19:03:16.480Z,16.8
2023-05-14T19:05:42.537Z,16.7
2023-05-14T19:08:08.646Z,16.6
2023-05-14T19:10:33.819Z,16.5
2023-05-14T19:12:59.926Z,16.4
2023-05-14T19:15:25.938Z,16.3
2023-05-14T19:17:52.024Z,16.3
2023-05-14T19:20:18.205Z,16.2
2023-05-14T19:22:44.313Z,16.1
2023-05-14T19:25:10.292Z,16.1
2023-05-14T19:27:36.573Z,16
2023-05-14T19:30:02.631Z,15.9
2023-05-14T19:32:28.786Z,15.8
2023-05-14T19:34:54.860Z,15.7
2023-05-14T19:37:20.945Z,15.6
2023-05-14T19:39:46.864Z,15.5
2023-05-14T19:42:12.161Z,15.4
2023-05-14T19:44:38.246Z,15.3
2023-05-14T19:47:04.327Z,15.2
2023-05-14T19:49:30.455Z,15.1
2023-05-14T19:51:56.609Z,15
2023-05-14T19:54:22.635Z,14.9
2023-05-14T19:56:48.703Z,14.8
2023-05-14T19:59:14.868Z,14.8
2023-05-14T20:01:40.750Z,14.7
2023-05-14T20:04:06.995Z,14.6
2023-05-14T20:06:33.055Z,14.6
2023-05-14T20:08:59.188Z,14.5
2023-05-14T20:11:25.276Z,14.5
2023-05-14T20:13:50.414Z,14.5
2023-05-14T20:16:16.413Z,14.4
2023-05-14T20:18:42.596Z,14.4
2023-05-14T20:21:08.700Z,14.4
2023-05-14T20:23:34.606Z,14.3
2023-05-14T20:26:00.908Z,14.3
2023-05-14T20:28:27.010Z,14.2
2023-05-14T20:30:52.904Z,14.2
2023-05-14T20:33:19.171Z,14.2
2023-05-14T20:35:45.222Z,14.2
2023-05-14T20:38:11.406Z,14.1
2023-05-14T20:40:37.368Z,14.1
2023-05-14T20:43:03.524Z,14.1
2023-05-14T20:45:28.638Z,14.1
2023-05-14T20:47:54.775Z,14.1
2023-05-14T20:50:20.796Z,14.1
2023-05-14T20:52:46.966Z,14.1
2023-05-14T20:55:12.960Z,14.1
2023-05-14T20:57:39.158Z,14
2023-05-14T21:00:05.133Z,14
2023-05-14T21:02:31.290Z,14
2023-05-14T21:04:57.409Z,13.9
2023-05-14T21:07:23.478Z,13.9
2023-05-14T21:09:49.624Z,13.9
2023-05-14T21:12:15.748Z,13.9
2023-05-14T21:14:41.814Z,13.9
2023-05-14T21:17:06.915Z,13.9
2023-05-14T21:19:33.072Z,13.9
2023-05-14T21:21:59.000Z,13.9
2023-05-14T21:24:25.148Z,13.9
2023-05-14T21:26:51.165Z,13.9
2023-05-14T21:29:17.436Z,13.9
2023-05-14T21:31:43.437Z,13.9
2023-05-14T21:34:09.652Z,13.9
2023-05-14T21:36:35.660Z,13.9
2023-05-14T21:39:01.725Z,13.9
2023-05-14T21:41:27.894Z,14
2023-05-14T21:43:53.956Z,14
2023-05-14T21:46:19.983Z,14
2023-05-14T21:48:44.977Z,14
2023-05-14T21:51:11.086Z,13.9
2023-05-14T21:53:37.238Z,13.9
2023-05-14T21:56:03.270Z,13.9
2023-05-14T21:58:29.371Z,13.9
2023-05-14T22:00:55.550Z,13.9
2023-05-14T22:03:21.567Z,13.9
2023-05-14T22:05:47.820Z,13.8
2023-05-14T22:08:13.770Z,13.8
2023-05-14T22:10:39.849Z,13.8
2023-05-14T22:13:05.940Z,13.7
2023-05-14T22:15:32.032Z,13.7
2023-05-14T22:17:58.184Z,13.7
2023-05-14T22:20:23.400Z,13.7
2023-05-14T22:22:49.352Z,13.7
2023-05-14T22:25:15.534Z,13.7
2023-05-14T22:27:41.596Z,13.7
2023-05-14T22:30:07.647Z,13.6
2023-05-14T22:32:33.718Z,13.6
2023-05-14T22:34:59.825Z,13.5
2023-05-14T22:37:25.892Z,13.5
2023-05-14T22:39:52.100Z,13.4
2023-05-14T22:42:18.085Z,13.3
2023-05-14T22:44:44.190Z,13.3
2023-05-14T22:47:10.294Z,13.2
2023-05-14T22:49:36.381Z,13.1
2023-05-14T22:52:01.495Z,13.1
2023-05-14T22:54:27.585Z,13
2023-05-14T22:56:53.724Z,13
2023-05-14T22:59:19.754Z,12.9
2023-05-14T23:01:45.860Z,12.8
2023-05-14T23:04:11.968Z,12.8
2023-05-14T23:06:38.045Z,12.7
2023-05-14T23:09:04.139Z,12.7
2023-05-14T23:11:30.324Z,12.6
2023-05-14T23:13:56.323Z,12.6
2023-05-14T23:16:22.523Z,12.5
2023-05-14T23:18:48.586Z,12.5
2023-05-14T23:21:14.627Z,12.4
2023-05-14T23:23:39.765Z,12.3
2023-05-14T23:26:05.852Z,12.3
2023-05-14T23:28:31.932Z,12.2
2023-05-14T23:30:58.014Z,12.2
2023-05-14T23:33:24.120Z,12.1
2023-05-14T23:35:50.218Z,12.1
2023-05-14T23:38:15.355Z,12
2023-05-14T23:40:41.477Z,12
2023-05-14T23:43:07.559Z,12
2023-05-14T23:45:33.646Z,12
2023-05-14T23:47:59.764Z,12
2023-05-14T23:50:25.852Z,12
2023-05-14T23:52:52.036Z,12.1
2023-05-14T23:55:18.149Z,12.1
2023-05-14T23:57:44.175Z,12
